Observation data for Northfield on 04/08/2021      Previous  Date  Next       Current Mesonet Observations  Soil Data  Daily Summary Page  Observations in Plain Language
KNOR 080500Z 09004KT 15/M00 A2991 RMK A01 T01501004  RH  035%=      5-min Rain = 0
KNOR 080505Z 09004KT 15/M00 A2991 RMK A01 T01501004  RH  035%=      5-min Rain = 0
KNOR 080510Z 08005KT 15/M00 A299 RMK A01 T01491004  RH  036%=      5-min Rain = 0
KNOR 080515Z 08005KT 15/M00 A2991 RMK A01 T01491004  RH  036%=      5-min Rain = 0
KNOR 080520Z 08004KT 15/M00 A299 RMK A01 T01501003  RH  035%=      5-min Rain = 0
KNOR 080525Z 08004KT 15/M00 A299 RMK A01 T01501003  RH  035%=      5-min Rain = 0
KNOR 080530Z 08004KT 15/M00 A299 RMK A01 T01501004  RH  035%=      5-min Rain = 0
KNOR 080535Z 07004KT 15/M00 A299 RMK A01 T01491004  RH  036%=      5-min Rain = 0
KNOR 080540Z 08004KT 15/M00 A299 RMK A01 T01501003  RH  035%=      5-min Rain = 0
KNOR 080545Z 08003KT 15/M00 A299 RMK A01 T01501003  RH  035%=      5-min Rain = 0
KNOR 080550Z 07003KT 15/M00 A2991 RMK A01 T01481003  RH  036%=      5-min Rain = 0
KNOR 080555Z 06003KT 15/M00 A299 RMK A01 T01461003  RH  036%=      5-min Rain = 0
KNOR 080600Z 04003KT 14/M00 A299 RMK A01 T01371004  RH  038%=      5-min Rain = 0
KNOR 080605Z 01002KT 13/M01 A2991 RMK A01 T01271006  RH  040%=      5-min Rain = 0
KNOR 080610Z 36001KT 12/M01 A2991 RMK A01 T01171008  RH  043%=      5-min Rain = 0
KNOR 080615Z 32001KT 12/M01 A2991 RMK A01 T01161008  RH  042%=      5-min Rain = 0
KNOR 080620Z 29002KT 12/M01 A2991 RMK A01 T01151008  RH  043%=      5-min Rain = 0
KNOR 080625Z 28002KT 11/M01 A2991 RMK A01 T01101008  RH  045%=      5-min Rain = 0
KNOR 080630Z 29002KT 11/M01 A2991 RMK A01 T01061007  RH  046%=      5-min Rain = 0
KNOR 080635Z 28002KT 11/M01 A2991 RMK A01 T01051007  RH  046%=      5-min Rain = 0
KNOR 080640Z 26004KT 10/M01 A299 RMK A01 T01041007  RH  047%=      5-min Rain = 0
KNOR 080645Z 25004KT 10/M01 A299 RMK A01 T00991006  RH  049%=      5-min Rain = 0
KNOR 080650Z 26004KT 10/M01 A299 RMK A01 T00951005  RH  050%=      5-min Rain = 0
KNOR 080655Z 26004KT 10/M01 A299 RMK A01 T00961005  RH  050%=      5-min Rain = 0
KNOR 080700Z 25004KT 10/M01 A299 RMK A01 T00961005  RH  050%=      5-min Rain = 0
KNOR 080705Z 26003KT 09/M01 A299 RMK A01 T00941005  RH  050%=      5-min Rain = 0
KNOR 080710Z 27002KT 09/M01 A299 RMK A01 T00941005  RH  050%=      5-min Rain = 0
KNOR 080715Z 27003KT 09/M01 A299 RMK A01 T00941005  RH  051%=      5-min Rain = 0
KNOR 080720Z 26003KT 09/M01 A299 RMK A01 T00911005  RH  051%=      5-min Rain = 0
KNOR 080725Z 25004KT 09/M01 A299 RMK A01 T00901005  RH  052%=      5-min Rain = 0
KNOR 080730Z 25004KT 09/M01 A299 RMK A01 T00871005  RH  053%=      5-min Rain = 0
KNOR 080735Z 25004KT 08/M00 A299 RMK A01 T00841004  RH  054%=      5-min Rain = 0
KNOR 080740Z 25005KT 08/M00 A299 RMK A01 T00831004  RH  055%=      5-min Rain = 0
KNOR 080745Z 24005KT 08/M01 A299 RMK A01 T00791005  RH  056%=      5-min Rain = 0
KNOR 080750Z 24005KT 08/M00 A299 RMK A01 T00821004  RH  055%=      5-min Rain = 0
KNOR 080755Z 24005KT 08/M01 A299 RMK A01 T00831005  RH  055%=      5-min Rain = 0
KNOR 080800Z 25005KT 08/M01 A299 RMK A01 T00811005  RH  055%=      5-min Rain = 0
KNOR 080805Z 25005KT 08/M00 A299 RMK A01 T00801004  RH  056%=      5-min Rain = 0
KNOR 080810Z 24006KT 08/M00 A299 RMK A01 T00801004  RH  056%=      5-min Rain = 0
KNOR 080815Z 25005KT 08/M00 A299 RMK A01 T00801003  RH  056%=      5-min Rain = 0
KNOR 080820Z 26006KT 08/M00 A299 RMK A01 T00771004  RH  057%=      5-min Rain = 0
KNOR 080825Z 25006KT 07/M00 A299 RMK A01 T00721003  RH  060%=      5-min Rain = 0
KNOR 080830Z 25006KT 07/M00 A299 RMK A01 T00681002  RH  062%=      5-min Rain = 0
KNOR 080835Z 24006KT 07/M00 A299 RMK A01 T00671002  RH  062%=      5-min Rain = 0
KNOR 080840Z 25006KT 07/M00 A299 RMK A01 T00661002  RH  062%=      5-min Rain = 0
KNOR 080845Z 25006KT 06/M00 A299 RMK A01 T00631002  RH  064%=      5-min Rain = 0
KNOR 080850Z 25006KT 06/M00 A299 RMK A01 T00641002  RH  063%=      5-min Rain = 0
KNOR 080855Z 24006KT 06/M00 A299 RMK A01 T00631002  RH  064%=      5-min Rain = 0
KNOR 080900Z 24006KT 06/M00 A2989 RMK A01 T00581002  RH  066%=      5-min Rain = 0
KNOR 080905Z 24007KT 06/M00 A299 RMK A01 T00581001  RH  067%=      5-min Rain = 0
KNOR 080910Z 24006KT 06/M00 A299 RMK A01 T00571001  RH  067%=      5-min Rain = 0
KNOR 080915Z 24006KT 06/M00 A299 RMK A01 T00551001  RH  068%=      5-min Rain = 0
KNOR 080920Z 24006KT 06/M00 A299 RMK A01 T00551001  RH  068%=      5-min Rain = 0
KNOR 080925Z 24006KT 06/M00 A299 RMK A01 T00561001  RH  068%=      5-min Rain = 0
KNOR 080930Z 24005KT 06/M00 A299 RMK A01 T00561001  RH  067%=      5-min Rain = 0
KNOR 080935Z 24005KT 06/M00 A299 RMK A01 T00581001  RH  066%=      5-min Rain = 0
KNOR 080940Z 23006KT 06/M00 A299 RMK A01 T00591002  RH  066%=      5-min Rain = 0
KNOR 080945Z 23005KT 06/M00 A2989 RMK A01 T00571002  RH  066%=      5-min Rain = 0
KNOR 080950Z 23005KT 06/M00 A2989 RMK A01 T00581004  RH  065%=      5-min Rain = 0
KNOR 080955Z 23006KT 06/M00 A2989 RMK A01 T00601004  RH  064%=      5-min Rain = 0
KNOR 081000Z 23006KT 06/M00 A2989 RMK A01 T00601004  RH  064%=      5-min Rain = 0
KNOR 081005Z 23005KT 06/M00 A2988 RMK A01 T00591004  RH  065%=      5-min Rain = 0
KNOR 081010Z 23005KT 06/M00 A2988 RMK A01 T00631004  RH  063%=      5-min Rain = 0
KNOR 081015Z 22005KT 06/M00 A2988 RMK A01 T00631004  RH  063%=      5-min Rain = 0
KNOR 081020Z 22005KT 07/M00 A2988 RMK A01 T00651004  RH  062%=      5-min Rain = 0
KNOR 081025Z 23005KT 06/M00 A2988 RMK A01 T00601004  RH  064%=      5-min Rain = 0
KNOR 081030Z 23004KT 06/M00 A2988 RMK A01 T00601003  RH  065%=      5-min Rain = 0
KNOR 081035Z 24005KT 06/M00 A2989 RMK A01 T00611003  RH  064%=      5-min Rain = 0
KNOR 081040Z 24005KT 06/M00 A2988 RMK A01 T00621004  RH  064%=      5-min Rain = 0
KNOR 081045Z 24005KT 06/M00 A2988 RMK A01 T00621004  RH  063%=      5-min Rain = 0
KNOR 081050Z 25005KT 06/M00 A2988 RMK A01 T00571004  RH  065%=      5-min Rain = 0
KNOR 081055Z 25005KT 06/M00 A2988 RMK A01 T00551004  RH  066%=      5-min Rain = 0
KNOR 081100Z 25005KT 05/M01 A2989 RMK A01 T00481005  RH  069%=      5-min Rain = 0
KNOR 081105Z 24006KT 04/M01 A2989 RMK A01 T00411005  RH  073%=      5-min Rain = 0
KNOR 081110Z 24006KT 04/M00 A2989 RMK A01 T00391003  RH  075%=      5-min Rain = 0
KNOR 081115Z 24006KT 04/M00 A2989 RMK A01 T00411002  RH  074%=      5-min Rain = 0
KNOR 081120Z 24006KT 04/M00 A2989 RMK A01 T00421003  RH  074%=      5-min Rain = 0
KNOR 081125Z 24006KT 04/M00 A2989 RMK A01 T00431002  RH  073%=      5-min Rain = 0
KNOR 081130Z 24006KT 05/M00 A2989 RMK A01 T00451003  RH  072%=      5-min Rain = 0
KNOR 081135Z 23006KT 05/M00 A2989 RMK A01 T00451003  RH  072%=      5-min Rain = 0
KNOR 081140Z 23006KT 04/M00 A2988 RMK A01 T00431004  RH  072%=      5-min Rain = 0
KNOR 081145Z 23006KT 04/M00 A2988 RMK A01 T00431003  RH  073%=      5-min Rain = 0
KNOR 081150Z 23006KT 04/M00 A2988 RMK A01 T00441003  RH  072%=      5-min Rain = 0
KNOR 081155Z 23006KT 05/M00 A2988 RMK A01 T00461002  RH  072%=      5-min Rain = 0
KNOR 081200Z 24006KT 05/M00 A2989 RMK A01 T00471002  RH  071%=      5-min Rain = 0
KNOR 081205Z 24006KT 05/M00 A2989 RMK A01 T00491002  RH  071%=      5-min Rain = 0
KNOR 081210Z 24006KT 05/M00 A2989 RMK A01 T00481002  RH  070%=      5-min Rain = 0
KNOR 081215Z 24006KT 05/M00 A2989 RMK A01 T00471003  RH  071%=      5-min Rain = 0
KNOR 081220Z 24006KT 05/M00 A2988 RMK A01 T00461002  RH  072%=      5-min Rain = 0
KNOR 081225Z 24005KT 05/M00 A2988 RMK A01 T00461002  RH  072%=      5-min Rain = 0
KNOR 081230Z 23005KT 05/M00 A2988 RMK A01 T00461002  RH  072%=      5-min Rain = 0
KNOR 081235Z 24005KT 05/M00 A2989 RMK A01 T00461002  RH  072%=      5-min Rain = 0
KNOR 081240Z 24006KT 05/M00 A2989 RMK A01 T00461001  RH  072%=      5-min Rain = 0
KNOR 081245Z 24006KT 05/00 A2989 RMK A01 T00460000  RH  073%=      5-min Rain = 0
KNOR 081250Z 25006KT 05/00 A299 RMK A01 T00470002  RH  073%=      5-min Rain = 0
KNOR 081255Z 25006KT 05/00 A299 RMK A01 T00490003  RH  073%=      5-min Rain = 0
KNOR 081300Z 25006KT 05/00 A299 RMK A01 T00500004  RH  073%=      5-min Rain = 0
KNOR 081305Z 25006KT 05/00 A299 RMK A01 T00510004  RH  073%=      5-min Rain = 0
KNOR 081310Z 25007KT 05/01 A299 RMK A01 T00520005  RH  073%=      5-min Rain = 0
KNOR 081315Z 25006KT 06/01 A299 RMK A01 T00560007  RH  072%=      5-min Rain = 0
KNOR 081320Z 25005KT 06/01 A299 RMK A01 T00570008  RH  071%=      5-min Rain = 0
KNOR 081325Z 24005KT 06/01 A299 RMK A01 T00630010  RH  070%=      5-min Rain = 0
KNOR 081330Z 24004KT 07/01 A299 RMK A01 T00680011  RH  068%=      5-min Rain = 0
KNOR 081335Z 23004KT 08/01 A299 RMK A01 T00750012  RH  065%=      5-min Rain = 0
KNOR 081340Z 23005KT 08/01 A299 RMK A01 T00790011  RH  063%=      5-min Rain = 0
KNOR 081345Z 23005KT 08/01 A299 RMK A01 T00840012  RH  061%=      5-min Rain = 0
KNOR 081350Z 24004KT 09/02 A299 RMK A01 T00940017  RH  060%=      5-min Rain = 0
KNOR 081355Z 24006KT 10/02 A299 RMK A01 T01000015  RH  056%=      5-min Rain = 0
KNOR 081400Z 24005KT 11/02 A299 RMK A01 T01070019  RH  055%=      5-min Rain = 0
KNOR 081405Z 24005KT 11/02 A299 RMK A01 T01120017  RH  053%=      5-min Rain = 0
KNOR 081410Z 24006KT 12/02 A299 RMK A01 T01180016  RH  050%=      5-min Rain = 0
KNOR 081415Z 24005KT 12/02 A299 RMK A01 T01230017  RH  049%=      5-min Rain = 0
KNOR 081420Z 24005KT 13/02 A299 RMK A01 T01310019  RH  047%=      5-min Rain = 0
KNOR 081425Z 23006KT 14/02 A299 RMK A01 T01360019  RH  046%=      5-min Rain = 0
KNOR 081430Z 23005KT 14/02 A299 RMK A01 T01420019  RH  044%=      5-min Rain = 0
KNOR 081435Z 24005KT 15/02 A299 RMK A01 T01450020  RH  044%=      5-min Rain = 0
KNOR 081440Z 23005KT 15/02 A299 RMK A01 T01540022  RH  042%=      5-min Rain = 0
KNOR 081445Z 24005KT 16/02 A2989 RMK A01 T01550022  RH  041%=      5-min Rain = 0
KNOR 081450Z 23004KT 16/02 A2989 RMK A01 T01610022  RH  040%=      5-min Rain = 0
KNOR 081455Z 22005KT 17/02 A299 RMK A01 T01680021  RH  038%=      5-min Rain = 0
KNOR 081500Z 22004KT 18/02 A2989 RMK A01 T01760023  RH  037%=      5-min Rain = 0
KNOR 081505Z 22005KT 18/02 A2989 RMK A01 T01800022  RH  035%=      5-min Rain = 0
KNOR 081510Z 23004KT 18/02 A2989 RMK A01 T01830022  RH  035%=      5-min Rain = 0
KNOR 081515Z 22004KT 19/02 A2989 RMK A01 T01910021  RH  033%=      5-min Rain = 0
KNOR 081520Z 22003KT 20/01 A2989 RMK A01 T01950014  RH  030%=      5-min Rain = 0
KNOR 081525Z 26003KT 20/01 A2989 RMK A01 T01990012  RH  029%=      5-min Rain = 0
KNOR 081530Z 25003KT 20/02 A2989 RMK A01 T01990016  RH  030%=      5-min Rain = 0
KNOR 081535Z 22003KT 20/01 A2989 RMK A01 T02040012  RH  028%=      5-min Rain = 0
KNOR 081540Z 23004KT 21/01 A2989 RMK A01 T02100011  RH  027%=      5-min Rain = 0
KNOR 081545Z 27003KT 21/01 A2989 RMK A01 T02080011  RH  027%=      5-min Rain = 0
KNOR 081550Z 28001KT 21/01 A2989 RMK A01 T02070008  RH  027%=      5-min Rain = 0
KNOR 081555Z 19003KT 22/01 A2989 RMK A01 T02160007  RH  025%=      5-min Rain = 0
KNOR 081600Z 20003KT 22/00 A2988 RMK A01 T02210004  RH  024%=      5-min Rain = 0
KNOR 081605Z 18003KT 22/00 A2988 RMK A01 T02220004  RH  024%=      5-min Rain = 0
KNOR 081610Z 18004KT 22/00 A2988 RMK A01 T02230002  RH  023%=      5-min Rain = 0
KNOR 081615Z 16004KT 22/00 A2988 RMK A01 T02240001  RH  023%=      5-min Rain = 0
KNOR 081620Z 16005KT 22/M00 A2988 RMK A01 T02241004  RH  022%=      5-min Rain = 0
KNOR 081625Z 18003G9KT 23/M00 A2987 RMK A01 T02251004  RH  022%=      5-min Rain = 0
KNOR 081630Z 17005KT 23/M00 A2987 RMK A01 T02281003  RH  022%=      5-min Rain = 0
KNOR 081635Z 18005KT 23/M01 A2987 RMK A01 T02261009  RH  021%=      5-min Rain = 0
KNOR 081640Z 19005KT 23/M01 A2986 RMK A01 T02261006  RH  021%=      5-min Rain = 0
KNOR 081645Z 20005KT 23/M01 A2986 RMK A01 T02331013  RH  020%=      5-min Rain = 0
KNOR 081650Z 21007KT 23/M01 A2986 RMK A01 T02331010  RH  020%=      5-min Rain = 0
KNOR 081655Z 16005KT 24/M02 A2986 RMK A01 T02361023  RH  018%=      5-min Rain = 0
KNOR 081700Z 15007G12KT 24/M02 A2985 RMK A01 T02371021  RH  018%=      5-min Rain = 0
KNOR 081705Z 16007KT 24/M03 A2985 RMK A01 T02361027  RH  017%=      5-min Rain = 0
KNOR 081710Z 19007G12KT 24/M02 A2985 RMK A01 T02421024  RH  017%=      5-min Rain = 0
KNOR 081715Z 16010KT 24/M03 A2984 RMK A01 T02411034  RH  016%=      5-min Rain = 0
KNOR 081720Z 16008KT 24/M03 A2985 RMK A01 T02361031  RH  017%=      5-min Rain = 0
KNOR 081725Z 16009KT 24/M02 A2984 RMK A01 T02381020  RH  018%=      5-min Rain = 0
KNOR 081730Z 21007G12KT 24/M02 A2984 RMK A01 T02361019  RH  018%=      5-min Rain = 0
KNOR 081735Z 19006G11KT 24/M02 A2984 RMK A01 T02391016  RH  018%=      5-min Rain = 0
KNOR 081740Z 14007G12KT 25/M02 A2984 RMK A01 T02451018  RH  018%=      5-min Rain = 0
KNOR 081745Z 18007KT 25/M02 A2984 RMK A01 T02471019  RH  017%=      5-min Rain = 0
KNOR 081750Z 16007KT 24/M02 A2984 RMK A01 T02411024  RH  017%=      5-min Rain = 0
KNOR 081755Z 18007KT 25/M02 A2984 RMK A01 T02471020  RH  017%=      5-min Rain = 0
KNOR 081800Z 18008KT 25/M02 A2983 RMK A01 T02471023  RH  017%=      5-min Rain = 0
KNOR 081805Z 20008G19KT 25/M02 A2983 RMK A01 T02461023  RH  017%=      5-min Rain = 0
KNOR 081810Z 19006KT 25/M02 A2983 RMK A01 T02461019  RH  017%=      5-min Rain = 0
KNOR 081815Z 17005G11KT 25/M02 A2983 RMK A01 T02461019  RH  017%=      5-min Rain = 0
KNOR 081820Z 17008G13KT 25/M02 A2982 RMK A01 T02491017  RH  017%=      5-min Rain = 0
KNOR 081825Z 17008G18KT 25/M02 A2982 RMK A01 T02471019  RH  017%=      5-min Rain = 0
KNOR 081830Z 21008KT 26/M02 A2982 RMK A01 T02551022  RH  016%=      5-min Rain = 0
KNOR 081835Z 21009KT 25/M03 A2982 RMK A01 T02521025  RH  016%=      5-min Rain = 0
KNOR 081840Z 21004G9KT 25/M03 A2982 RMK A01 T02481029  RH  016%=      5-min Rain = 0
KNOR 081845Z 19005G14KT 25/M02 A2981 RMK A01 T02521023  RH  016%=      5-min Rain = 0
KNOR 081850Z 20008G16KT 25/M02 A2981 RMK A01 T02531022  RH  016%=      5-min Rain = 0
KNOR 081855Z 18008G15KT 25/M02 A2981 RMK A01 T02531024  RH  016%=      5-min Rain = 0
KNOR 081900Z 18007G12KT 25/M03 A2981 RMK A01 T02501026  RH  016%=      5-min Rain = 0
KNOR 081905Z 19007KT 25/M02 A298 RMK A01 T02541023  RH  016%=      5-min Rain = 0
KNOR 081910Z 22006KT 26/M03 A298 RMK A01 T02561025  RH  016%=      5-min Rain = 0
KNOR 081915Z 22008KT 26/M02 A298 RMK A01 T02571024  RH  016%=      5-min Rain = 0
KNOR 081920Z 21004G10KT 25/M03 A2979 RMK A01 T02521027  RH  016%=      5-min Rain = 0
KNOR 081925Z 18009G14KT 26/M02 A2979 RMK A01 T02581022  RH  016%=      5-min Rain = 0
KNOR 081930Z 18008G14KT 26/M02 A2979 RMK A01 T02581021  RH  016%=      5-min Rain = 0
KNOR 081935Z 23006KT 26/M03 A2978 RMK A01 T02611026  RH  015%=      5-min Rain = 0
KNOR 081940Z 22007KT 26/M02 A2978 RMK A01 T02631024  RH  015%=      5-min Rain = 0
KNOR 081945Z 19006G15KT 26/M03 A2978 RMK A01 T02591029  RH  015%=      5-min Rain = 0
KNOR 081950Z 17008G14KT 26/M02 A2977 RMK A01 T02611024  RH  015%=      5-min Rain = 0
KNOR 081955Z 18007G14KT 26/M03 A2977 RMK A01 T02581025  RH  015%=      5-min Rain = 0
KNOR 082000Z 17007G12KT 26/M03 A2977 RMK A01 T02621027  RH  015%=      5-min Rain = 0
KNOR 082005Z 18007G12KT 26/M03 A2977 RMK A01 T02631027  RH  015%=      5-min Rain = 0
KNOR 082010Z 20006G11KT 26/M03 A2976 RMK A01 T02631029  RH  015%=      5-min Rain = 0
KNOR 082015Z 19010G16KT 27/M02 A2976 RMK A01 T02691023  RH  015%=      5-min Rain = 0
KNOR 082020Z 19008KT 27/M03 A2975 RMK A01 T02661027  RH  014%=      5-min Rain = 0
KNOR 082025Z 24007G13KT 27/M03 A2975 RMK A01 T02691031  RH  014%=      5-min Rain = 0
KNOR 082030Z 24007G13KT 27/M03 A2975 RMK A01 T02721033  RH  013%=      5-min Rain = 0
KNOR 082035Z 23007KT 27/M04 A2974 RMK A01 T02651036  RH  014%=      5-min Rain = 0
KNOR 082040Z 19005G10KT 27/M03 A2974 RMK A01 T02681034  RH  014%=      5-min Rain = 0
KNOR 082045Z 15004KT 27/M03 A2974 RMK A01 T02691032  RH  014%=      5-min Rain = 0
KNOR 082050Z 19008G15KT 27/M03 A2973 RMK A01 T02731031  RH  013%=      5-min Rain = 0
KNOR 082055Z 18008KT 27/M03 A2973 RMK A01 T02721031  RH  014%=      5-min Rain = 0
KNOR 082100Z 22006G11KT 27/M03 A2973 RMK A01 T02701032  RH  014%=      5-min Rain = 0
KNOR 082105Z 22007KT 27/M04 A2973 RMK A01 T02701040  RH  013%=      5-min Rain = 0
KNOR 082110Z 20006G11KT 27/M04 A2973 RMK A01 T02731041  RH  013%=      5-min Rain = 0
KNOR 082115Z 16007KT 28/M04 A2972 RMK A01 T02781036  RH  013%=      5-min Rain = 0
KNOR 082120Z 20006G12KT 28/M04 A2972 RMK A01 T02761038  RH  013%=      5-min Rain = 0
KNOR 082125Z 17005KT 28/M04 A2972 RMK A01 T02761038  RH  013%=      5-min Rain = 0
KNOR 082130Z 18009G14KT 28/M03 A2971 RMK A01 T02791032  RH  013%=      5-min Rain = 0
KNOR 082135Z 20006G11KT 28/M04 A2971 RMK A01 T02761040  RH  012%=      5-min Rain = 0
KNOR 082140Z 17006KT 28/M04 A2971 RMK A01 T02781043  RH  012%=      5-min Rain = 0
KNOR 082145Z 16007G12KT 28/M04 A2971 RMK A01 T02771040  RH  012%=      5-min Rain = 0
KNOR 082150Z 16007KT 28/M04 A2971 RMK A01 T02751039  RH  013%=      5-min Rain = 0
KNOR 082155Z 14005KT 28/M04 A2971 RMK A01 T02761036  RH  013%=      5-min Rain = 0
KNOR 082200Z 19005G13KT 28/M04 A297 RMK A01 T02801039  RH  012%=      5-min Rain = 0
KNOR 082205Z 18007KT 28/M04 A297 RMK A01 T02781042  RH  012%=      5-min Rain = 0
KNOR 082210Z 18007G13KT 28/M04 A297 RMK A01 T02771040  RH  012%=      5-min Rain = 0
KNOR 082215Z 16010KT 27/M05 A297 RMK A01 T02701045  RH  012%=      5-min Rain = 0
KNOR 082220Z 19010G15KT 27/M04 A297 RMK A01 T02731040  RH  013%=      5-min Rain = 0
KNOR 082225Z 19010KT 27/M04 A297 RMK A01 T02731042  RH  012%=      5-min Rain = 0
KNOR 082230Z 17008KT 28/M04 A297 RMK A01 T02751044  RH  012%=      5-min Rain = 0
KNOR 082235Z 17006KT 28/M05 A297 RMK A01 T02791045  RH  012%=      5-min Rain = 0
KNOR 082240Z 20008G13KT 28/M05 A2969 RMK A01 T02771045  RH  012%=      5-min Rain = 0
KNOR 082245Z 20007KT 28/M05 A2969 RMK A01 T02771049  RH  011%=      5-min Rain = 0
KNOR 082250Z 20006KT 28/M05 A2969 RMK A01 T02781047  RH  012%=      5-min Rain = 0
KNOR 082255Z 19007KT 28/M04 A2969 RMK A01 T02791044  RH  012%=      5-min Rain = 0
KNOR 082300Z 18009KT 28/M05 A2969 RMK A01 T02751047  RH  012%=      5-min Rain = 0
KNOR 082305Z 20007KT 28/M05 A2969 RMK A01 T02781046  RH  012%=      5-min Rain = 0
KNOR 082310Z 19008G13KT 28/M04 A2969 RMK A01 T02821044  RH  012%=      5-min Rain = 0
KNOR 082315Z 20011G16KT 28/M05 A2968 RMK A01 T02781046  RH  012%=      5-min Rain = 0
KNOR 082320Z 20008KT 27/M05 A2968 RMK A01 T02731046  RH  012%=      5-min Rain = 0
KNOR 082325Z 20008KT 27/M04 A2968 RMK A01 T02721044  RH  012%=      5-min Rain = 0
KNOR 082330Z 20008KT 27/M05 A2968 RMK A01 T02701046  RH  012%=      5-min Rain = 0
KNOR 082335Z 18008KT 27/M04 A2968 RMK A01 T02691040  RH  013%=      5-min Rain = 0
KNOR 082340Z 17009KT 27/M04 A2968 RMK A01 T02691040  RH  013%=      5-min Rain = 0
KNOR 082345Z 16009KT 27/M04 A2968 RMK A01 T02651041  RH  013%=      5-min Rain = 0
KNOR 082350Z 17008KT 26/M04 A2968 RMK A01 T02621042  RH  013%=      5-min Rain = 0
KNOR 082355Z 16008KT 26/M04 A2968 RMK A01 T02631039  RH  013%=      5-min Rain = 0
KNOR 090000Z 15007KT 26/M03 A2968 RMK A01 T02621034  RH  014%=      5-min Rain = 0
KNOR 090005Z 15008KT 26/M04 A2967 RMK A01 T02601036  RH  014%=      5-min Rain = 0
KNOR 090010Z 15009KT 26/M03 A2967 RMK A01 T02591034  RH  014%=      5-min Rain = 0
KNOR 090015Z 16009KT 26/M03 A2967 RMK A01 T02551034  RH  015%=      5-min Rain = 0
KNOR 090020Z 15009KT 25/M03 A2966 RMK A01 T02511032  RH  015%=      5-min Rain = 0
KNOR 090025Z 15008KT 25/M03 A2966 RMK A01 T02471032  RH  016%=      5-min Rain = 0
KNOR 090030Z 15008KT 24/M03 A2966 RMK A01 T02431029  RH  016%=      5-min Rain = 0
KNOR 090035Z 15008KT 24/M03 A2965 RMK A01 T02381025  RH  017%=      5-min Rain = 0
KNOR 090040Z 15008KT 24/M03 A2965 RMK A01 T02351025  RH  018%=      5-min Rain = 0
KNOR 090045Z 15009KT 23/M03 A2965 RMK A01 T02331025  RH  018%=      5-min Rain = 0
KNOR 090050Z 15008KT 23/M02 A2965 RMK A01 T02291024  RH  018%=      5-min Rain = 0
KNOR 090055Z 15008KT 23/M03 A2965 RMK A01 T02251025  RH  019%=      5-min Rain = 0
KNOR 090100Z 15009KT 22/M03 A2965 RMK A01 T02221025  RH  019%=      5-min Rain = 0
KNOR 090105Z 15009KT 22/M02 A2965 RMK A01 T02221024  RH  019%=      5-min Rain = 0
KNOR 090110Z 14009KT 22/M02 A2964 RMK A01 T02191023  RH  020%=      5-min Rain = 0
KNOR 090115Z 14009KT 22/M02 A2964 RMK A01 T02161022  RH  020%=      5-min Rain = 0
KNOR 090120Z 14009KT 21/M02 A2964 RMK A01 T02131022  RH  021%=      5-min Rain = 0
KNOR 090125Z 14010KT 21/M02 A2964 RMK A01 T02141022  RH  021%=      5-min Rain = 0
KNOR 090130Z 14009KT 21/M02 A2964 RMK A01 T02121021  RH  021%=      5-min Rain = 0
KNOR 090135Z 14010KT 21/M02 A2964 RMK A01 T02101020  RH  021%=      5-min Rain = 0
KNOR 090140Z 14010KT 21/M02 A2964 RMK A01 T02081020  RH  022%=      5-min Rain = 0
KNOR 090145Z 14010KT 21/M02 A2964 RMK A01 T02071021  RH  022%=      5-min Rain = 0
KNOR 090150Z 14010KT 21/M02 A2964 RMK A01 T02091023  RH  021%=      5-min Rain = 0
KNOR 090155Z 14011KT 21/M03 A2964 RMK A01 T02081025  RH  021%=      5-min Rain = 0
KNOR 090200Z 14011KT 21/M03 A2964 RMK A01 T02081026  RH  021%=      5-min Rain = 0
KNOR 090205Z 15011KT 21/M03 A2964 RMK A01 T02081026  RH  021%=      5-min Rain = 0
KNOR 090210Z 15011KT 20/M02 A2964 RMK A01 T02031024  RH  022%=      5-min Rain = 0
KNOR 090215Z 14011KT 20/M03 A2964 RMK A01 T02041025  RH  021%=      5-min Rain = 0
KNOR 090220Z 14010KT 20/M02 A2964 RMK A01 T02001024  RH  022%=      5-min Rain = 0
KNOR 090225Z 14011KT 20/M02 A2964 RMK A01 T01971024  RH  023%=      5-min Rain = 0
KNOR 090230Z 14011KT 20/M03 A2964 RMK A01 T01971025  RH  022%=      5-min Rain = 0
KNOR 090235Z 14010KT 20/M03 A2964 RMK A01 T01961025  RH  022%=      5-min Rain = 0
KNOR 090240Z 14010KT 19/M03 A2964 RMK A01 T01931025  RH  023%=      5-min Rain = 0
KNOR 090245Z 14010KT 19/M03 A2965 RMK A01 T01921025  RH  023%=      5-min Rain = 0
KNOR 090250Z 13010KT 19/M03 A2965 RMK A01 T01901025  RH  023%=      5-min Rain = 0
KNOR 090255Z 13010KT 19/M03 A2965 RMK A01 T01901026  RH  023%=      5-min Rain = 0
KNOR 090300Z 13010KT 19/M03 A2965 RMK A01 T01881025  RH  024%=      5-min Rain = 0
KNOR 090305Z 14010KT 19/M02 A2965 RMK A01 T01861024  RH  024%=      5-min Rain = 0
KNOR 090310Z 14010KT 19/M03 A2965 RMK A01 T01861025  RH  024%=      5-min Rain = 0
KNOR 090315Z 13010KT 19/M03 A2965 RMK A01 T01871025  RH  024%=      5-min Rain = 0
KNOR 090320Z 12007KT 18/M02 A2965 RMK A01 T01821024  RH  025%=      5-min Rain = 0
KNOR 090325Z 11007KT 18/M02 A2965 RMK A01 T01781024  RH  025%=      5-min Rain = 0
KNOR 090330Z 11008KT 19/M03 A2965 RMK A01 T01861027  RH  024%=      5-min Rain = 0
KNOR 090335Z 11008KT 19/M03 A2965 RMK A01 T01851026  RH  024%=      5-min Rain = 0
KNOR 090340Z 12009KT 18/M03 A2965 RMK A01 T01821025  RH  025%=      5-min Rain = 0
KNOR 090345Z 12008KT 18/M02 A2965 RMK A01 T01781024  RH  025%=      5-min Rain = 0
KNOR 090350Z 12008KT 18/M02 A2965 RMK A01 T01761023  RH  026%=      5-min Rain = 0
KNOR 090355Z 11008KT 17/M02 A2965 RMK A01 T01741022  RH  026%=      5-min Rain = 0
KNOR 090400Z 12008KT 17/M02 A2964 RMK A01 T01731021  RH  027%=      5-min Rain = 0
KNOR 090405Z 12007KT 17/M02 A2965 RMK A01 T01731021  RH  027%=      5-min Rain = 0
KNOR 090410Z 12006KT 17/M02 A2965 RMK A01 T01731020  RH  027%=      5-min Rain = 0
KNOR 090415Z 12003KT 18/M02 A2965 RMK A01 T01761020  RH  027%=      5-min Rain = 0
KNOR 090420Z 12005KT 18/M02 A2965 RMK A01 T01811019  RH  026%=      5-min Rain = 0
KNOR 090425Z 13007KT 18/M02 A2965 RMK A01 T01781018  RH  027%=      5-min Rain = 0
KNOR 090430Z 13008G13KT 18/M02 A2964 RMK A01 T01771016  RH  027%=      5-min Rain = 0
KNOR 090435Z 13006KT 18/M02 A2964 RMK A01 T01831016  RH  026%=      5-min Rain = 0
KNOR 090440Z 14006KT 18/M02 A2964 RMK A01 T01791017  RH  027%=      5-min Rain = 0
KNOR 090445Z 17004KT 17/M02 A2964 RMK A01 T01671017  RH  029%=      5-min Rain = 0
KNOR 090450Z 17003KT 16/M02 A2964 RMK A01 T01591017  RH  030%=      5-min Rain = 0
KNOR 090455Z 15007KT 16/M02 A2964 RMK A01 T01601015  RH  030%=      5-min Rain = 0

Page generated in 0.0093 seconds.